createdAt,value
2018-06-19T00:01:40.008Z,94575.64
2018-06-19T00:04:07.674Z,94581.64
2018-06-19T00:06:35.393Z,94583.75
2018-06-19T00:09:03.854Z,94586.80
2018-06-19T00:11:31.551Z,94588.55
2018-06-19T00:13:59.237Z,94593.11
2018-06-19T00:16:26.938Z,94583.57
2018-06-19T00:18:55.718Z,94584.66
2018-06-19T00:21:26.531Z,94590.77
2018-06-19T00:23:54.227Z,94601.35
2018-06-19T00:26:21.931Z,94592.80
2018-06-19T00:28:49.633Z,94597.39
2018-06-19T00:31:17.341Z,94600.31
2018-06-19T00:33:44.994Z,94607.34
2018-06-19T00:36:12.681Z,94613.32
2018-06-19T00:38:40.355Z,94609.14
2018-06-19T00:41:08.002Z,94610.24
2018-06-19T00:43:35.667Z,94613.18
2018-06-19T00:46:03.486Z,94611.33
2018-06-19T00:48:31.211Z,94611.33
2018-06-19T00:50:58.959Z,94607.09
2018-06-19T00:53:26.750Z,94615.62
2018-06-19T00:55:58.927Z,94616.83
2018-06-19T00:58:26.550Z,94621.11
2018-06-19T01:00:54.219Z,94622.20
2018-06-19T01:03:21.905Z,94623.75
2018-06-19T01:05:49.573Z,94620.20
2018-06-19T01:08:17.291Z,94624.66
2018-06-19T01:10:44.975Z,94620.89
2018-06-19T01:13:12.686Z,94625.16
2018-06-19T01:15:40.387Z,94624.86
2018-06-19T01:18:08.082Z,94630.83
2018-06-19T01:20:35.757Z,94624.95
2018-06-19T01:23:03.456Z,94628.98
2018-06-19T01:25:31.127Z,94632.66
2018-06-19T01:27:58.796Z,94631.55
2018-06-19T01:30:26.460Z,94631.87
2018-06-19T01:32:54.150Z,94634.58
2018-06-19T01:35:21.851Z,94634.05
2018-06-19T01:37:49.539Z,94633.86
2018-06-19T01:40:17.218Z,94637.09
2018-06-19T01:42:44.902Z,94644.02
2018-06-19T01:45:12.560Z,94648.04
2018-06-19T01:47:40.238Z,94651.72
2018-06-19T01:50:07.909Z,94649.45
2018-06-19T01:52:35.600Z,94643.80
2018-06-19T01:55:03.247Z,94648.04
2018-06-19T01:57:30.944Z,94651.25
2018-06-19T01:59:58.611Z,94652.00
2018-06-19T02:02:26.283Z,94641.39
2018-06-19T02:04:53.929Z,94640.39
2018-06-19T02:07:21.641Z,94642.76
2018-06-19T02:09:49.314Z,94651.88
2018-06-19T02:12:17.013Z,94644.17
2018-06-19T02:14:44.723Z,94653.57
2018-06-19T02:17:12.432Z,94656.05
2018-06-19T02:19:40.115Z,94650.14
2018-06-19T02:22:07.765Z,94647.31
2018-06-19T02:24:35.465Z,94647.12
2018-06-19T02:27:03.113Z,94654.04
2018-06-19T02:29:30.794Z,94653.32
2018-06-19T02:31:58.475Z,94653.06
2018-06-19T02:34:26.181Z,94651.18
2018-06-19T02:36:53.847Z,94647.75
2018-06-19T02:39:21.638Z,94652.00
2018-06-19T02:41:49.298Z,94649.33
2018-06-19T02:44:16.982Z,94654.73
2018-06-19T02:46:44.714Z,94654.61
2018-06-19T02:49:12.370Z,94656.94
2018-06-19T02:51:40.076Z,94654.73
2018-06-19T02:54:07.762Z,94657.22
2018-06-19T02:56:35.441Z,94656.46
2018-06-19T02:59:03.171Z,94664.13
2018-06-19T03:01:30.863Z,94663.69
2018-06-19T03:03:58.522Z,94665.92
2018-06-19T03:06:26.222Z,94663.34
2018-06-19T03:08:53.881Z,94665.28
2018-06-19T03:11:21.558Z,94662.80
2018-06-19T03:13:49.202Z,94665.45
2018-06-19T03:16:17.090Z,94668.78
2018-06-19T03:18:44.769Z,94669.81
2018-06-19T03:21:12.731Z,94660.98
2018-06-19T03:23:40.465Z,94666.74
2018-06-19T03:26:08.380Z,94667.18
2018-06-19T03:28:36.047Z,94665.77
2018-06-19T03:31:03.728Z,94666.05
2018-06-19T03:33:31.432Z,94660.02
2018-06-19T03:35:59.219Z,94668.56
2018-06-19T03:38:26.874Z,94667.91
2018-06-19T03:40:54.526Z,94675.77
2018-06-19T03:43:22.202Z,94682.74
2018-06-19T03:45:49.868Z,94680.44
2018-06-19T03:48:17.510Z,94680.58
2018-06-19T03:50:45.185Z,94684.06
2018-06-19T03:53:12.867Z,94683.34
2018-06-19T03:55:40.527Z,94684.81
2018-06-19T03:58:08.227Z,94694.41
2018-06-19T04:00:35.921Z,94690.88
2018-06-19T04:03:03.622Z,94695.13
2018-06-19T04:05:31.316Z,94699.61
2018-06-19T04:07:58.990Z,94688.99
2018-06-19T04:10:26.693Z,94696.82
2018-06-19T04:12:54.374Z,94697.83
2018-06-19T04:15:22.067Z,94699.66
2018-06-19T04:17:49.744Z,94698.98
2018-06-19T04:20:17.419Z,94695.81
2018-06-19T04:22:45.091Z,94703.09
2018-06-19T04:25:12.823Z,94703.31
2018-06-19T04:27:40.530Z,94703.31
2018-06-19T04:30:08.180Z,94703.91
2018-06-19T04:32:36.002Z,94701.98
2018-06-19T04:35:03.662Z,94704.74
2018-06-19T04:37:31.346Z,94706.59
2018-06-19T04:39:59.049Z,94705.78
2018-06-19T04:42:26.745Z,94698.27
2018-06-19T04:44:54.433Z,94700.70
2018-06-19T04:47:22.110Z,94696.03
2018-06-19T04:49:49.853Z,94699.13
2018-06-19T04:52:17.516Z,94688.74
2018-06-19T04:54:45.178Z,94691.76
2018-06-19T04:57:12.891Z,94702.47
2018-06-19T04:59:40.630Z,94700.11
2018-06-19T05:02:08.366Z,94695.09
2018-06-19T05:04:36.112Z,94698.73
2018-06-19T05:07:03.822Z,94692.64
2018-06-19T05:09:31.538Z,94692.28
2018-06-19T05:11:59.222Z,94694.09
2018-06-19T05:14:27.146Z,94691.45
2018-06-19T05:16:54.809Z,94694.94
2018-06-19T05:19:22.475Z,94694.43
2018-06-19T05:21:50.161Z,94692.55
2018-06-19T05:24:17.876Z,94699.27
2018-06-19T05:26:45.582Z,94702.74
2018-06-19T05:29:13.277Z,94705.00
2018-06-19T05:31:40.953Z,94704.37
2018-06-19T05:34:08.635Z,94702.22
2018-06-19T05:36:36.479Z,94708.17
2018-06-19T05:39:07.658Z,94708.44
2018-06-19T05:41:36.677Z,94718.79
2018-06-19T05:44:04.847Z,94713.28
2018-06-19T05:46:32.515Z,94714.72
2018-06-19T05:49:00.183Z,94715.80
2018-06-19T05:51:27.963Z,94716.44
2018-06-19T05:53:55.851Z,94715.95
2018-06-19T05:56:23.510Z,94715.73
2018-06-19T05:58:51.192Z,94714.73
2018-06-19T06:01:18.887Z,94709.81
2018-06-19T06:03:46.547Z,94718.90
2018-06-19T06:06:14.225Z,94715.48
2018-06-19T06:08:41.907Z,94718.60
2018-06-19T06:11:09.611Z,94717.55
2018-06-19T06:13:37.285Z,94724.49
2018-06-19T06:16:04.981Z,94724.22
2018-06-19T06:18:32.633Z,94725.93
2018-06-19T06:21:00.354Z,94730.42
2018-06-19T06:23:28.038Z,94734.48
2018-06-19T06:25:55.953Z,94732.30
2018-06-19T06:28:23.619Z,94728.64
2018-06-19T06:30:51.321Z,94730.84
2018-06-19T06:33:19.095Z,94721.95
2018-06-19T06:35:46.781Z,94718.02
2018-06-19T06:38:14.466Z,94724.78
2018-06-19T06:40:42.142Z,94735.66
2018-06-19T06:43:09.849Z,94732.38
2018-06-19T06:45:37.538Z,94734.95
2018-06-19T06:48:05.458Z,94740.15
2018-06-19T06:50:33.212Z,94737.19
2018-06-19T06:53:00.862Z,94737.94
2018-06-19T06:55:28.567Z,94739.12
2018-06-19T06:57:56.264Z,94728.47
2018-06-19T07:00:23.942Z,94738.45
2018-06-19T07:02:51.703Z,94736.67
2018-06-19T07:05:19.375Z,94742.36
2018-06-19T07:07:47.066Z,94742.36
2018-06-19T07:10:14.805Z,94735.59
2018-06-19T07:12:42.471Z,94734.50
2018-06-19T07:15:10.429Z,94743.23
2018-06-19T07:17:38.094Z,94742.82
2018-06-19T07:20:05.836Z,94741.43
2018-06-19T07:22:33.528Z,94735.47
2018-06-19T07:25:01.207Z,94736.89
2018-06-19T07:27:28.939Z,94736.41
2018-06-19T07:29:56.634Z,94743.02
2018-06-19T07:32:24.308Z,94739.12
2018-06-19T07:34:51.977Z,94730.80
2018-06-19T07:37:19.659Z,94732.98
2018-06-19T07:39:47.366Z,94733.27
2018-06-19T07:42:15.069Z,94727.81
2018-06-19T07:44:42.773Z,94730.88
2018-06-19T07:47:10.430Z,94736.66
2018-06-19T07:49:38.145Z,94734.19
2018-06-19T07:52:05.868Z,94731.56
2018-06-19T07:54:33.565Z,94727.70
2018-06-19T07:57:01.198Z,94720.08
2018-06-19T07:59:28.974Z,94717.66
2018-06-19T08:01:56.637Z,94723.98
2018-06-19T08:04:24.331Z,94726.58
2018-06-19T08:06:52.038Z,94725.77
2018-06-19T08:09:19.726Z,94712.16
2018-06-19T08:11:47.414Z,94710.59
2018-06-19T08:14:15.095Z,94706.47
2018-06-19T08:16:42.840Z,94712.48
2018-06-19T08:19:10.526Z,94708.22
2018-06-19T08:21:38.218Z,94713.17
2018-06-19T08:24:05.951Z,94715.69
2018-06-19T08:26:33.672Z,94720.11
2018-06-19T08:29:01.433Z,94720.36
2018-06-19T08:31:29.145Z,94709.66
2018-06-19T08:33:56.814Z,94712.28
2018-06-19T08:36:24.478Z,94706.01
2018-06-19T08:38:52.202Z,94713.02
2018-06-19T08:41:19.900Z,94713.36
2018-06-19T08:43:47.611Z,94713.13
2018-06-19T08:46:15.291Z,94716.34
2018-06-19T08:48:44.007Z,94723.61
2018-06-19T08:51:12.063Z,94716.64
2018-06-19T08:53:39.722Z,94725.23
2018-06-19T08:56:07.410Z,94712.19
2018-06-19T08:58:35.134Z,94706.56
2018-06-19T09:01:02.883Z,94703.02
2018-06-19T09:03:30.567Z,94708.28
2018-06-19T09:05:58.206Z,94701.47
2018-06-19T09:08:25.918Z,94701.09
2018-06-19T09:10:53.574Z,94696.25
2018-06-19T09:13:21.322Z,94700.95
2018-06-19T09:15:49.015Z,94701.49
2018-06-19T09:18:16.699Z,94694.02
2018-06-19T09:20:44.361Z,94685.84
2018-06-19T09:23:12.032Z,94690.58
2018-06-19T09:25:39.778Z,94694.60
2018-06-19T09:28:07.497Z,94692.75
2018-06-19T09:30:35.182Z,94696.25
2018-06-19T09:33:02.828Z,94689.80
2018-06-19T09:35:30.551Z,94687.93
2018-06-19T09:37:58.269Z,94689.25
2018-06-19T09:40:25.950Z,94691.18
2018-06-19T09:42:53.631Z,94688.64
2018-06-19T09:45:21.244Z,94688.59
2018-06-19T09:47:48.914Z,94689.16
2018-06-19T09:50:16.607Z,94685.69
2018-06-19T09:52:44.359Z,94673.91
2018-06-19T09:55:12.110Z,94682.47
2018-06-19T09:57:39.882Z,94677.87
2018-06-19T10:00:07.618Z,94689.87
2018-06-19T10:02:35.320Z,94692.20
2018-06-19T10:05:03.111Z,94690.88
2018-06-19T10:07:30.769Z,94691.02
2018-06-19T10:09:58.592Z,94692.38
2018-06-19T10:12:26.306Z,94689.52
2018-06-19T10:14:54.007Z,94681.56
2018-06-19T10:17:21.719Z,94688.51
2018-06-19T10:19:49.490Z,94685.17
2018-06-19T10:22:17.213Z,94684.73
2018-06-19T10:24:44.888Z,94684.36
2018-06-19T10:27:12.658Z,94682.57
2018-06-19T10:29:40.372Z,94680.37
2018-06-19T10:32:08.101Z,94679.28
2018-06-19T10:34:35.999Z,94675.88
2018-06-19T10:37:03.642Z,94683.17
2018-06-19T10:39:31.387Z,94682.91
2018-06-19T10:41:59.092Z,94686.28
2018-06-19T10:44:26.799Z,94687.00
2018-06-19T10:46:54.448Z,94693.40
2018-06-19T10:49:22.166Z,94694.16
2018-06-19T10:51:49.827Z,94695.15
2018-06-19T10:54:17.523Z,94696.37
2018-06-19T10:56:45.151Z,94692.09
2018-06-19T10:59:12.808Z,94696.05
2018-06-19T11:01:40.426Z,94693.78
2018-06-19T11:04:08.067Z,94697.71
2018-06-19T11:06:35.703Z,94701.17
2018-06-19T11:09:05.353Z,94696.92
2018-06-19T11:11:32.993Z,94698.80
2018-06-19T11:14:00.638Z,94696.84
2018-06-19T11:16:28.295Z,94692.36
2018-06-19T11:18:55.933Z,94685.55
2018-06-19T11:21:23.649Z,94687.48
2018-06-19T11:23:51.323Z,94682.13
2018-06-19T11:26:19.862Z,94682.94
2018-06-19T11:28:47.534Z,94681.12
2018-06-19T11:31:15.266Z,94684.34
2018-06-19T11:33:42.899Z,94675.61
2018-06-19T11:36:10.723Z,94674.90
2018-06-19T11:38:38.417Z,94672.31
2018-06-19T11:41:06.038Z,94680.34
2018-06-19T11:43:33.775Z,94674.05
2018-06-19T11:46:01.423Z,94676.66
2018-06-19T11:48:29.170Z,94680.77
2018-06-19T11:50:56.806Z,94670.94
2018-06-19T11:53:24.639Z,94673.63
2018-06-19T11:55:52.481Z,94682.92
2018-06-19T11:58:20.092Z,94682.11
2018-06-19T12:00:47.761Z,94673.81
2018-06-19T12:03:15.423Z,94669.30
2018-06-19T12:05:43.099Z,94673.23
2018-06-19T12:08:10.766Z,94670.12
2018-06-19T12:10:38.497Z,94672.61
2018-06-19T12:13:06.183Z,94668.03
2018-06-19T12:15:33.754Z,94657.03
2018-06-19T12:18:01.400Z,94656.57
2018-06-19T12:20:29.077Z,94654.84
2018-06-19T12:22:56.706Z,94656.66
2018-06-19T12:25:24.395Z,94658.15
2018-06-19T12:27:52.068Z,94657.03
2018-06-19T12:30:19.694Z,94649.51
2018-06-19T12:32:47.426Z,94651.22
2018-06-19T12:35:15.035Z,94654.17
2018-06-19T12:37:42.679Z,94648.73
2018-06-19T12:40:10.335Z,94646.43
2018-06-19T12:42:37.974Z,94649.96
2018-06-19T12:45:05.671Z,94640.77
2018-06-19T12:47:33.333Z,94639.51
2018-06-19T12:50:34.163Z,94641.45
2018-06-19T12:53:07.530Z,94641.91
2018-06-19T12:55:40.684Z,94637.91
2018-06-19T12:58:08.365Z,94635.44
2018-06-19T13:00:35.987Z,94639.33
2018-06-19T13:03:09.240Z,94636.59
2018-06-19T13:05:42.367Z,94632.92
2018-06-19T13:08:10.198Z,94641.09
2018-06-19T13:10:37.834Z,94634.69
2018-06-19T13:13:22.120Z,94635.25
2018-06-19T13:15:50.993Z,94633.05
2018-06-19T13:18:24.356Z,94633.23
2018-06-19T13:20:52.008Z,94622.51
2018-06-19T13:23:19.655Z,94620.23
2018-06-19T13:25:47.326Z,94619.44
2018-06-19T13:28:14.957Z,94620.75
2018-06-19T13:30:48.151Z,94625.06
2018-06-19T13:33:15.810Z,94619.70
2018-06-19T13:35:43.443Z,94615.96
2018-06-19T13:38:11.118Z,94613.61
2018-06-19T13:40:53.186Z,94608.75
2018-06-19T13:43:26.569Z,94612.27
2018-06-19T13:45:54.227Z,94611.18
2018-06-19T13:48:21.877Z,94616.31
2018-06-19T13:50:49.530Z,94606.88
2018-06-19T13:53:17.167Z,94606.07
2018-06-19T13:57:53.470Z,94606.90
2018-06-19T14:00:21.907Z,94606.91
2018-06-19T14:02:49.861Z,94605.81
2018-06-19T14:05:18.578Z,94603.64
2018-06-19T14:08:50.466Z,94600.69
2018-06-19T14:11:23.570Z,94604.48
2018-06-19T14:13:51.216Z,94603.41
2018-06-19T14:16:18.860Z,94600.99
2018-06-19T14:18:46.506Z,94600.45
2018-06-19T14:21:14.201Z,94603.68
2018-06-19T14:23:41.838Z,94601.23
2018-06-19T14:26:09.575Z,94599.89
2018-06-19T14:28:37.219Z,94605.27
2018-06-19T14:31:04.916Z,94602.05
2018-06-19T14:33:33.508Z,94598.03
2018-06-19T14:36:01.315Z,94598.82
2018-06-19T14:38:28.938Z,94600.44
2018-06-19T14:40:56.613Z,94599.11
2018-06-19T14:43:24.302Z,94594.52
2018-06-19T14:45:51.962Z,94593.97
2018-06-19T14:48:19.588Z,94583.23
2018-06-19T14:50:47.266Z,94587.81
2018-06-19T14:53:14.900Z,94584.03
2018-06-19T14:55:42.806Z,94591.23
2018-06-19T14:58:10.471Z,94591.30
2018-06-19T15:00:38.110Z,94584.83
2018-06-19T15:03:05.787Z,94585.35
2018-06-19T15:05:33.445Z,94582.70
2018-06-19T15:08:01.093Z,94583.23
2018-06-19T15:10:28.852Z,94575.70
2018-06-19T15:12:56.487Z,94578.67
2018-06-19T15:15:24.171Z,94578.95
2018-06-19T15:17:51.825Z,94575.45
2018-06-19T15:20:19.584Z,94579.74
2018-06-19T15:22:47.224Z,94573.02
2018-06-19T15:25:14.868Z,94576.23
2018-06-19T15:27:42.535Z,94566.58
2018-06-19T15:30:10.183Z,94577.85
2018-06-19T15:32:37.829Z,94572.48
2018-06-19T15:35:05.498Z,94569.55
2018-06-19T15:37:33.352Z,94570.89
2018-06-19T15:40:01.007Z,94567.63
2018-06-19T15:42:28.675Z,94563.32
2018-06-19T15:44:56.333Z,94577.03
2018-06-19T15:47:23.974Z,94565.52
2018-06-19T15:49:51.710Z,94573.52
2018-06-19T15:52:19.371Z,94571.38
2018-06-19T15:54:47.015Z,94566.53
2018-06-19T15:57:14.678Z,94569.21
2018-06-19T15:59:42.660Z,94561.70
2018-06-19T16:02:10.302Z,94566.28
2018-06-19T16:04:37.950Z,94557.69
2018-06-19T16:07:05.632Z,94560.88
2018-06-19T16:09:33.326Z,94557.14
2018-06-19T16:12:00.971Z,94557.67
2018-06-19T16:14:28.647Z,94557.39
2018-06-19T16:16:56.429Z,94557.12
2018-06-19T16:19:24.044Z,94550.91
2018-06-19T16:21:51.850Z,94557.39
2018-06-19T16:24:19.488Z,94552.58
2018-06-19T16:26:47.210Z,94548.27
2018-06-19T16:29:14.878Z,94546.91
2018-06-19T16:31:42.535Z,94548.51
2018-06-19T16:34:10.190Z,94549.84
2018-06-19T16:36:37.823Z,94546.90
2018-06-19T16:39:06.832Z,94550.40
2018-06-19T16:41:34.491Z,94544.47
2018-06-19T16:44:02.163Z,94543.94
2018-06-19T16:46:29.867Z,94539.11
2018-06-19T16:48:57.519Z,94535.09
2018-06-19T16:51:25.171Z,94536.95
2018-06-19T16:53:52.844Z,94539.37
2018-06-19T16:56:20.511Z,94539.09
2018-06-19T16:58:48.318Z,94540.16
2018-06-19T17:01:15.984Z,94542.59
2018-06-19T17:03:43.625Z,94539.61
2018-06-19T17:06:11.305Z,94540.73
2018-06-19T17:08:38.938Z,94531.33
2018-06-19T17:11:06.690Z,94537.20
2018-06-19T17:13:34.389Z,94537.41
2018-06-19T17:16:02.232Z,94535.28
2018-06-19T17:18:29.910Z,94533.63
2018-06-19T17:20:57.603Z,94529.36
2018-06-19T17:23:25.266Z,94535.30
2018-06-19T17:25:52.883Z,94532.86
2018-06-19T17:28:20.570Z,94533.11
2018-06-19T17:30:48.246Z,94534.17
2018-06-19T17:33:15.886Z,94538.20
2018-06-19T17:35:43.525Z,94535.23
2018-06-19T17:38:11.203Z,94537.63
2018-06-19T17:40:38.851Z,94532.53
2018-06-19T17:43:06.496Z,94533.56
2018-06-19T17:45:34.134Z,94537.33
2018-06-19T17:48:01.805Z,94533.86
2018-06-19T17:50:29.451Z,94530.31
2018-06-19T17:52:57.156Z,94536.25
2018-06-19T17:55:24.794Z,94535.67
2018-06-19T17:57:52.473Z,94532.42
2018-06-19T18:00:20.183Z,94533.77
2018-06-19T18:02:47.826Z,94538.60
2018-06-19T18:05:15.516Z,94537.80
2018-06-19T18:07:43.179Z,94536.98
2018-06-19T18:10:10.838Z,94535.85
2018-06-19T18:12:38.495Z,94532.84
2018-06-19T18:15:06.294Z,94536.59
2018-06-19T18:17:33.941Z,94534.41
2018-06-19T18:20:01.732Z,94534.95
2018-06-19T18:22:29.446Z,94532.27
2018-06-19T18:24:57.103Z,94534.06
2018-06-19T18:27:24.810Z,94534.87
2018-06-19T18:29:52.470Z,94533.75
2018-06-19T18:32:20.174Z,94532.64
2018-06-19T18:34:47.812Z,94526.49
2018-06-19T18:37:16.500Z,94533.73
2018-06-19T18:39:44.157Z,94536.13
2018-06-19T18:42:12.006Z,94532.33
2018-06-19T18:44:39.677Z,94528.09
2018-06-19T18:47:07.300Z,94531.55
2018-06-19T18:49:34.969Z,94530.61
2018-06-19T18:52:02.643Z,94535.63
2018-06-19T18:54:30.296Z,94535.13
2018-06-19T18:56:57.929Z,94534.42
2018-06-19T18:59:25.568Z,94537.56
2018-06-19T19:01:53.187Z,94534.80
2018-06-19T19:04:20.875Z,94533.09
2018-06-19T19:06:48.516Z,94537.16
2018-06-19T19:09:16.135Z,94535.25
2018-06-19T19:11:43.844Z,94533.54
2018-06-19T19:14:11.490Z,94537.02
2018-06-19T19:16:44.788Z,94537.98
2018-06-19T19:19:15.507Z,94541.28
2018-06-19T19:21:43.224Z,94543.20
2018-06-19T19:24:10.853Z,94545.01
2018-06-19T19:26:44.359Z,94542.09
2018-06-19T19:29:17.575Z,94544.41
2018-06-19T19:31:45.247Z,94539.19
2018-06-19T19:34:12.902Z,94545.73
2018-06-19T19:36:46.334Z,94545.13
2018-06-19T19:39:19.523Z,94547.30
2018-06-19T19:41:47.197Z,94547.11
2018-06-19T19:44:14.835Z,94553.80
2018-06-19T19:46:48.259Z,94553.92
2018-06-19T19:49:15.903Z,94555.07
2018-06-19T19:51:43.563Z,94556.30
2018-06-19T19:54:11.240Z,94559.36
2018-06-19T19:57:44.573Z,94556.71
2018-06-19T20:00:16.787Z,94561.68
2018-06-19T20:02:44.455Z,94560.87
2018-06-19T20:05:12.147Z,94563.94
2018-06-19T20:07:40.146Z,94570.05
2018-06-19T20:10:07.830Z,94567.26
2018-06-19T20:12:35.504Z,94574.11
2018-06-19T20:15:03.235Z,94572.34
2018-06-19T20:17:30.960Z,94573.95
2018-06-19T20:19:58.590Z,94572.09
2018-06-19T20:22:26.249Z,94577.22
2018-06-19T20:24:53.932Z,94578.39
2018-06-19T20:27:21.622Z,94576.39
2018-06-19T20:29:49.285Z,94582.39
2018-06-19T20:32:16.990Z,94578.05
2018-06-19T20:34:44.692Z,94581.22
2018-06-19T20:37:12.341Z,94582.54
2018-06-19T20:39:40.008Z,94578.48
2018-06-19T20:42:07.681Z,94579.90
2018-06-19T20:44:35.371Z,94583.89
2018-06-19T20:47:03.087Z,94590.44
2018-06-19T20:49:30.765Z,94584.75
2018-06-19T20:51:58.430Z,94582.58
2018-06-19T20:54:26.063Z,94581.41
2018-06-19T20:56:53.740Z,94573.80
2018-06-19T20:59:21.376Z,94575.79
2018-06-19T21:01:49.157Z,94573.70
2018-06-19T21:04:16.839Z,94575.69
2018-06-19T21:06:44.584Z,94574.63
2018-06-19T21:09:13.207Z,94577.19
2018-06-19T21:11:40.882Z,94570.91
2018-06-19T21:14:08.546Z,94569.78
2018-06-19T21:16:36.642Z,94568.64
2018-06-19T21:19:04.361Z,94566.69
2018-06-19T21:21:32.050Z,94570.28
2018-06-19T21:23:59.949Z,94574.06
2018-06-19T21:26:27.623Z,94573.99
2018-06-19T21:28:55.298Z,94570.93
2018-06-19T21:31:23.038Z,94575.06
2018-06-19T21:33:50.718Z,94578.25
2018-06-19T21:36:18.367Z,94575.66
2018-06-19T21:38:46.006Z,94568.40
2018-06-19T21:41:13.686Z,94569.94
2018-06-19T21:43:41.320Z,94570.44
2018-06-19T21:46:08.984Z,94571.59
2018-06-19T21:48:36.627Z,94575.55
2018-06-19T21:51:04.331Z,94570.11
2018-06-19T21:53:31.974Z,94575.25
2018-06-19T21:55:59.640Z,94567.19
2018-06-19T21:58:27.272Z,94564.48
2018-06-19T22:00:54.968Z,94570.56
2018-06-19T22:03:22.585Z,94570.91
2018-06-19T22:05:50.223Z,94569.72
2018-06-19T22:08:17.846Z,94569.42
2018-06-19T22:10:45.498Z,94569.47
2018-06-19T22:13:13.166Z,94574.16
2018-06-19T22:15:40.817Z,94578.38
2018-06-19T22:18:08.461Z,94575.29
2018-06-19T22:20:36.122Z,94574.08
2018-06-19T22:23:03.751Z,94574.25
2018-06-19T22:25:31.426Z,94574.13
2018-06-19T22:27:59.050Z,94576.53
2018-06-19T22:30:26.715Z,94584.20
2018-06-19T22:32:54.336Z,94575.88
2018-06-19T22:35:21.970Z,94574.93
2018-06-19T22:37:49.585Z,94575.23
2018-06-19T22:40:17.253Z,94575.53
2018-06-19T22:42:44.924Z,94575.83
2018-06-19T22:45:12.579Z,94567.86
2018-06-19T22:47:40.257Z,94569.31
2018-06-19T22:50:07.905Z,94566.82
2018-06-19T22:52:35.546Z,94560.74
2018-06-19T22:55:03.205Z,94568.72
2018-06-19T22:57:30.838Z,94564.16
2018-06-19T22:59:58.469Z,94569.75
2018-06-19T23:02:26.113Z,94575.36
2018-06-19T23:04:53.830Z,94571.55
2018-06-19T23:07:21.495Z,94574.03
2018-06-19T23:09:50.246Z,94576.41
2018-06-19T23:12:17.962Z,94573.31
2018-06-19T23:14:45.626Z,94576.13
2018-06-19T23:17:13.358Z,94569.48
2018-06-19T23:19:41.042Z,94574.20
2018-06-19T23:22:08.888Z,94568.58
2018-06-19T23:24:36.600Z,94578.02
2018-06-19T23:27:04.394Z,94575.36
2018-06-19T23:29:32.112Z,94584.66
2018-06-19T23:31:59.795Z,94578.78
2018-06-19T23:34:27.694Z,94580.84
2018-06-19T23:36:55.365Z,94580.11
2018-06-19T23:39:23.041Z,94577.89
2018-06-19T23:41:50.730Z,94578.77
2018-06-19T23:44:18.398Z,94580.84
2018-06-19T23:46:46.066Z,94574.78
2018-06-19T23:49:13.763Z,94572.28
2018-06-19T23:51:41.475Z,94569.55
2018-06-19T23:54:09.149Z,94568.31
2018-06-19T23:56:36.887Z,94568.45
2018-06-19T23:59:04.662Z,94565.51
